sensor_id;sensor_type;location;lat;lon;timestamp;P1;durP1;ratioP1;P2;durP2;ratioP2
29302;SDS011;60019;45.556;12.004;2024-03-07T00:03:37;4.65;;;3.05;;
29302;SDS011;60019;45.556;12.004;2024-03-07T00:09:39;5.63;;;3.58;;
29302;SDS011;60019;45.556;12.004;2024-03-07T00:15:41;4.10;;;3.60;;
29302;SDS011;60019;45.556;12.004;2024-03-07T00:21:43;5.13;;;3.92;;
29302;SDS011;60019;45.556;12.004;2024-03-07T00:27:45;4.88;;;3.65;;
29302;SDS011;60019;45.556;12.004;2024-03-07T00:33:46;5.38;;;3.70;;
29302;SDS011;60019;45.556;12.004;2024-03-07T00:39:48;4.22;;;3.58;;
29302;SDS011;60019;45.556;12.004;2024-03-07T00:45:50;5.90;;;4.53;;
29302;SDS011;60019;45.556;12.004;2024-03-07T00:51:52;5.15;;;4.30;;
29302;SDS011;60019;45.556;12.004;2024-03-07T00:57:54;9.00;;;4.13;;
29302;SDS011;60019;45.556;12.004;2024-03-07T01:03:56;6.13;;;4.07;;
29302;SDS011;60019;45.556;12.004;2024-03-07T01:09:58;5.72;;;3.60;;
29302;SDS011;60019;45.556;12.004;2024-03-07T01:16:01;6.25;;;4.43;;
29302;SDS011;60019;45.556;12.004;2024-03-07T01:22:03;4.50;;;3.70;;
29302;SDS011;60019;45.556;12.004;2024-03-07T01:28:06;4.20;;;3.80;;
29302;SDS011;60019;45.556;12.004;2024-03-07T01:34:08;5.93;;;3.60;;
29302;SDS011;60019;45.556;12.004;2024-03-07T01:40:10;4.28;;;3.65;;
29302;SDS011;60019;45.556;12.004;2024-03-07T01:46:12;7.40;;;4.38;;
29302;SDS011;60019;45.556;12.004;2024-03-07T01:52:14;5.78;;;3.20;;
29302;SDS011;60019;45.556;12.004;2024-03-07T01:58:17;5.65;;;3.47;;
29302;SDS011;60019;45.556;12.004;2024-03-07T02:04:20;6.90;;;3.65;;
29302;SDS011;60019;45.556;12.004;2024-03-07T02:10:22;4.15;;;3.30;;
29302;SDS011;60019;45.556;12.004;2024-03-07T02:16:23;4.30;;;3.42;;
29302;SDS011;60019;45.556;12.004;2024-03-07T02:22:25;4.38;;;3.10;;
29302;SDS011;60019;45.556;12.004;2024-03-07T02:28:27;6.40;;;3.40;;
29302;SDS011;60019;45.556;12.004;2024-03-07T02:34:29;4.20;;;3.25;;
29302;SDS011;60019;45.556;12.004;2024-03-07T02:40:31;5.18;;;3.05;;
29302;SDS011;60019;45.556;12.004;2024-03-07T02:46:33;3.20;;;2.80;;
29302;SDS011;60019;45.556;12.004;2024-03-07T02:52:34;4.68;;;3.67;;
29302;SDS011;60019;45.556;12.004;2024-03-07T02:58:36;4.78;;;3.75;;
29302;SDS011;60019;45.556;12.004;2024-03-07T03:04:38;5.15;;;3.55;;
29302;SDS011;60019;45.556;12.004;2024-03-07T03:10:40;4.93;;;3.67;;
29302;SDS011;60019;45.556;12.004;2024-03-07T03:16:42;5.45;;;4.00;;
29302;SDS011;60019;45.556;12.004;2024-03-07T03:22:44;4.05;;;3.30;;
29302;SDS011;60019;45.556;12.004;2024-03-07T03:28:46;5.28;;;3.85;;
29302;SDS011;60019;45.556;12.004;2024-03-07T03:34:47;4.47;;;3.30;;
29302;SDS011;60019;45.556;12.004;2024-03-07T03:40:49;5.18;;;3.60;;
29302;SDS011;60019;45.556;12.004;2024-03-07T03:46:51;6.88;;;4.00;;
29302;SDS011;60019;45.556;12.004;2024-03-07T03:52:53;7.53;;;4.10;;
29302;SDS011;60019;45.556;12.004;2024-03-07T03:58:55;7.65;;;3.67;;
29302;SDS011;60019;45.556;12.004;2024-03-07T04:04:57;4.55;;;3.85;;
29302;SDS011;60019;45.556;12.004;2024-03-07T04:11:00;6.30;;;3.90;;
29302;SDS011;60019;45.556;12.004;2024-03-07T04:17:02;5.90;;;4.28;;
29302;SDS011;60019;45.556;12.004;2024-03-07T04:23:04;5.65;;;3.67;;
29302;SDS011;60019;45.556;12.004;2024-03-07T04:29:06;5.28;;;4.28;;
29302;SDS011;60019;45.556;12.004;2024-03-07T04:35:09;5.93;;;5.13;;
29302;SDS011;60019;45.556;12.004;2024-03-07T04:41:11;4.57;;;4.03;;
29302;SDS011;60019;45.556;12.004;2024-03-07T04:47:15;5.35;;;4.32;;
29302;SDS011;60019;45.556;12.004;2024-03-07T04:53:17;4.43;;;4.03;;
29302;SDS011;60019;45.556;12.004;2024-03-07T04:59:19;5.55;;;4.85;;
29302;SDS011;60019;45.556;12.004;2024-03-07T05:05:21;5.18;;;4.47;;
29302;SDS011;60019;45.556;12.004;2024-03-07T05:11:23;6.38;;;5.30;;
29302;SDS011;60019;45.556;12.004;2024-03-07T05:17:25;6.30;;;4.57;;
29302;SDS011;60019;45.556;12.004;2024-03-07T05:23:27;7.38;;;5.68;;
29302;SDS011;60019;45.556;12.004;2024-03-07T05:29:28;5.68;;;4.82;;
29302;SDS011;60019;45.556;12.004;2024-03-07T05:35:30;6.45;;;4.93;;
29302;SDS011;60019;45.556;12.004;2024-03-07T05:41:32;9.85;;;7.53;;
29302;SDS011;60019;45.556;12.004;2024-03-07T05:47:34;6.28;;;5.15;;
29302;SDS011;60019;45.556;12.004;2024-03-07T05:53:36;6.82;;;5.93;;
29302;SDS011;60019;45.556;12.004;2024-03-07T05:59:38;6.43;;;5.30;;
29302;SDS011;60019;45.556;12.004;2024-03-07T06:05:40;8.95;;;6.82;;
29302;SDS011;60019;45.556;12.004;2024-03-07T06:11:43;12.30;;;8.38;;
29302;SDS011;60019;45.556;12.004;2024-03-07T06:17:45;12.95;;;8.32;;
29302;SDS011;60019;45.556;12.004;2024-03-07T06:23:47;11.82;;;7.82;;
29302;SDS011;60019;45.556;12.004;2024-03-07T06:29:53;11.40;;;6.97;;
29302;SDS011;60019;45.556;12.004;2024-03-07T06:35:55;9.85;;;7.20;;
29302;SDS011;60019;45.556;12.004;2024-03-07T06:41:57;9.30;;;6.35;;
29302;SDS011;60019;45.556;12.004;2024-03-07T06:47:59;11.27;;;6.53;;
29302;SDS011;60019;45.556;12.004;2024-03-07T06:54:01;8.70;;;6.47;;
29302;SDS011;60019;45.556;12.004;2024-03-07T07:00:03;7.32;;;5.55;;
29302;SDS011;60019;45.556;12.004;2024-03-07T07:06:11;8.05;;;6.25;;
29302;SDS011;60019;45.556;12.004;2024-03-07T07:12:13;12.85;;;6.78;;
29302;SDS011;60019;45.556;12.004;2024-03-07T07:18:15;12.98;;;6.88;;
29302;SDS011;60019;45.556;12.004;2024-03-07T07:24:17;10.43;;;6.95;;
29302;SDS011;60019;45.556;12.004;2024-03-07T07:30:21;9.10;;;6.70;;
29302;SDS011;60019;45.556;12.004;2024-03-07T07:36:23;9.82;;;7.35;;
29302;SDS011;60019;45.556;12.004;2024-03-07T07:42:25;9.63;;;5.68;;
29302;SDS011;60019;45.556;12.004;2024-03-07T07:48:26;10.07;;;6.15;;
29302;SDS011;60019;45.556;12.004;2024-03-07T07:54:28;8.15;;;5.93;;
29302;SDS011;60019;45.556;12.004;2024-03-07T08:00:30;11.75;;;6.65;;
29302;SDS011;60019;45.556;12.004;2024-03-07T08:06:32;8.15;;;6.68;;
29302;SDS011;60019;45.556;12.004;2024-03-07T08:12:33;11.35;;;6.38;;
29302;SDS011;60019;45.556;12.004;2024-03-07T08:18:37;14.23;;;6.80;;
29302;SDS011;60019;45.556;12.004;2024-03-07T08:24:39;8.07;;;6.13;;
29302;SDS011;60019;45.556;12.004;2024-03-07T08:30:41;9.55;;;7.18;;
29302;SDS011;60019;45.556;12.004;2024-03-07T08:36:42;9.07;;;5.75;;
29302;SDS011;60019;45.556;12.004;2024-03-07T08:42:45;8.30;;;5.50;;
29302;SDS011;60019;45.556;12.004;2024-03-07T08:48:47;10.68;;;6.55;;
29302;SDS011;60019;45.556;12.004;2024-03-07T08:54:49;10.52;;;7.70;;
29302;SDS011;60019;45.556;12.004;2024-03-07T09:00:51;11.25;;;7.75;;
29302;SDS011;60019;45.556;12.004;2024-03-07T09:06:53;9.60;;;6.43;;
29302;SDS011;60019;45.556;12.004;2024-03-07T09:12:54;10.50;;;5.72;;
29302;SDS011;60019;45.556;12.004;2024-03-07T09:18:56;17.30;;;6.68;;
29302;SDS011;60019;45.556;12.004;2024-03-07T09:24:59;8.75;;;6.40;;
29302;SDS011;60019;45.556;12.004;2024-03-07T09:31:00;9.95;;;6.15;;
29302;SDS011;60019;45.556;12.004;2024-03-07T09:37:02;9.05;;;5.85;;
29302;SDS011;60019;45.556;12.004;2024-03-07T09:43:04;9.93;;;5.75;;
29302;SDS011;60019;45.556;12.004;2024-03-07T09:49:08;8.40;;;5.63;;
29302;SDS011;60019;45.556;12.004;2024-03-07T09:55:11;11.88;;;6.35;;
29302;SDS011;60019;45.556;12.004;2024-03-07T10:01:14;12.25;;;6.38;;
29302;SDS011;60019;45.556;12.004;2024-03-07T10:07:16;11.70;;;5.88;;
29302;SDS011;60019;45.556;12.004;2024-03-07T10:13:19;8.02;;;5.15;;
29302;SDS011;60019;45.556;12.004;2024-03-07T10:19:22;9.25;;;4.95;;
29302;SDS011;60019;45.556;12.004;2024-03-07T10:25:24;6.30;;;4.30;;
29302;SDS011;60019;45.556;12.004;2024-03-07T10:31:29;6.45;;;4.55;;
29302;SDS011;60019;45.556;12.004;2024-03-07T10:37:30;6.40;;;3.85;;
29302;SDS011;60019;45.556;12.004;2024-03-07T10:43:32;4.53;;;3.42;;
29302;SDS011;60019;45.556;12.004;2024-03-07T10:49:39;7.10;;;4.13;;
29302;SDS011;60019;45.556;12.004;2024-03-07T11:08:20;4.88;;;3.60;;
29302;SDS011;60019;45.556;12.004;2024-03-07T11:14:23;6.43;;;3.38;;
29302;SDS011;60019;45.556;12.004;2024-03-07T11:20:26;5.25;;;3.50;;
29302;SDS011;60019;45.556;12.004;2024-03-07T11:26:29;6.85;;;3.25;;
29302;SDS011;60019;45.556;12.004;2024-03-07T11:32:33;4.20;;;2.80;;
29302;SDS011;60019;45.556;12.004;2024-03-07T11:38:38;7.93;;;4.80;;
29302;SDS011;60019;45.556;12.004;2024-03-07T11:44:39;5.65;;;3.90;;
29302;SDS011;60019;45.556;12.004;2024-03-07T11:50:41;3.88;;;3.33;;
29302;SDS011;60019;45.556;12.004;2024-03-07T11:56:43;3.88;;;3.40;;
29302;SDS011;60019;45.556;12.004;2024-03-07T12:02:45;3.63;;;2.88;;
29302;SDS011;60019;45.556;12.004;2024-03-07T12:08:49;3.17;;;2.40;;
29302;SDS011;60019;45.556;12.004;2024-03-07T12:14:51;3.92;;;2.53;;
29302;SDS011;60019;45.556;12.004;2024-03-07T12:20:53;2.58;;;2.25;;
29302;SDS011;60019;45.556;12.004;2024-03-07T12:27:05;6.20;;;2.53;;
29302;SDS011;60019;45.556;12.004;2024-03-07T12:33:07;5.40;;;2.92;;
29302;SDS011;60019;45.556;12.004;2024-03-07T12:39:09;3.60;;;2.83;;
29302;SDS011;60019;45.556;12.004;2024-03-07T12:45:25;3.92;;;2.70;;
29302;SDS011;60019;45.556;12.004;2024-03-07T12:51:29;3.58;;;2.92;;
29302;SDS011;60019;45.556;12.004;2024-03-07T12:57:30;2.80;;;2.50;;
29302;SDS011;60019;45.556;12.004;2024-03-07T13:03:32;6.85;;;3.40;;
29302;SDS011;60019;45.556;12.004;2024-03-07T13:09:36;4.30;;;2.92;;
29302;SDS011;60019;45.556;12.004;2024-03-07T13:15:44;4.05;;;2.95;;
29302;SDS011;60019;45.556;12.004;2024-03-07T13:21:48;4.45;;;3.05;;
29302;SDS011;60019;45.556;12.004;2024-03-07T13:27:56;4.38;;;2.83;;
29302;SDS011;60019;45.556;12.004;2024-03-07T13:34:00;3.45;;;2.80;;
29302;SDS011;60019;45.556;12.004;2024-03-07T13:40:03;3.45;;;2.88;;
29302;SDS011;60019;45.556;12.004;2024-03-07T13:46:23;4.88;;;3.63;;
29302;SDS011;60019;45.556;12.004;2024-03-07T13:52:25;4.53;;;3.00;;
29302;SDS011;60019;45.556;12.004;2024-03-07T14:36:00;9.43;;;4.60;;
29302;SDS011;60019;45.556;12.004;2024-03-07T14:42:04;6.90;;;3.97;;
29302;SDS011;60019;45.556;12.004;2024-03-07T14:48:10;7.88;;;4.00;;
29302;SDS011;60019;45.556;12.004;2024-03-07T14:54:15;5.72;;;3.80;;
29302;SDS011;60019;45.556;12.004;2024-03-07T15:00:17;6.03;;;4.68;;
29302;SDS011;60019;45.556;12.004;2024-03-07T15:06:27;4.82;;;4.28;;
29302;SDS011;60019;45.556;12.004;2024-03-07T15:12:32;7.40;;;4.28;;
29302;SDS011;60019;45.556;12.004;2024-03-07T15:18:34;7.57;;;4.55;;
29302;SDS011;60019;45.556;12.004;2024-03-07T15:24:35;6.95;;;4.82;;
29302;SDS011;60019;45.556;12.004;2024-03-07T15:30:38;8.90;;;5.47;;
29302;SDS011;60019;45.556;12.004;2024-03-07T15:36:43;6.10;;;4.88;;
29302;SDS011;60019;45.556;12.004;2024-03-07T15:42:45;7.75;;;4.35;;
29302;SDS011;60019;45.556;12.004;2024-03-07T15:48:48;7.10;;;4.85;;
29302;SDS011;60019;45.556;12.004;2024-03-07T15:54:50;7.88;;;4.63;;
29302;SDS011;60019;45.556;12.004;2024-03-07T16:00:52;6.45;;;5.00;;
29302;SDS011;60019;45.556;12.004;2024-03-07T16:06:54;7.45;;;5.25;;
29302;SDS011;60019;45.556;12.004;2024-03-07T16:12:56;9.88;;;4.90;;
29302;SDS011;60019;45.556;12.004;2024-03-07T16:18:58;6.22;;;5.22;;
29302;SDS011;60019;45.556;12.004;2024-03-07T16:25:01;7.72;;;5.82;;
29302;SDS011;60019;45.556;12.004;2024-03-07T16:31:02;9.95;;;5.65;;
29302;SDS011;60019;45.556;12.004;2024-03-07T16:37:05;7.95;;;5.53;;
29302;SDS011;60019;45.556;12.004;2024-03-07T16:43:07;7.70;;;5.75;;
29302;SDS011;60019;45.556;12.004;2024-03-07T16:49:11;8.52;;;6.28;;
29302;SDS011;60019;45.556;12.004;2024-03-07T16:55:15;7.35;;;5.90;;
29302;SDS011;60019;45.556;12.004;2024-03-07T17:01:18;8.95;;;6.60;;
29302;SDS011;60019;45.556;12.004;2024-03-07T17:07:20;9.75;;;6.95;;
29302;SDS011;60019;45.556;12.004;2024-03-07T17:13:23;7.85;;;6.22;;
29302;SDS011;60019;45.556;12.004;2024-03-07T17:19:26;10.45;;;7.50;;
29302;SDS011;60019;45.556;12.004;2024-03-07T17:25:29;11.27;;;7.63;;
29302;SDS011;60019;45.556;12.004;2024-03-07T17:31:32;11.38;;;7.47;;
29302;SDS011;60019;45.556;12.004;2024-03-07T17:37:35;14.30;;;7.05;;
29302;SDS011;60019;45.556;12.004;2024-03-07T17:43:38;13.43;;;7.63;;
29302;SDS011;60019;45.556;12.004;2024-03-07T17:49:40;10.65;;;8.27;;
29302;SDS011;60019;45.556;12.004;2024-03-07T17:55:42;12.05;;;9.05;;
29302;SDS011;60019;45.556;12.004;2024-03-07T18:01:46;10.32;;;7.72;;
29302;SDS011;60019;45.556;12.004;2024-03-07T18:07:48;10.45;;;7.70;;
29302;SDS011;60019;45.556;12.004;2024-03-07T18:13:50;11.20;;;7.93;;
29302;SDS011;60019;45.556;12.004;2024-03-07T18:19:53;12.95;;;8.02;;
29302;SDS011;60019;45.556;12.004;2024-03-07T18:25:56;11.20;;;8.50;;
29302;SDS011;60019;45.556;12.004;2024-03-07T18:32:00;11.38;;;7.80;;
29302;SDS011;60019;45.556;12.004;2024-03-07T18:38:02;14.07;;;7.85;;
29302;SDS011;60019;45.556;12.004;2024-03-07T18:44:06;10.68;;;7.43;;
29302;SDS011;60019;45.556;12.004;2024-03-07T18:50:12;12.85;;;8.20;;
29302;SDS011;60019;45.556;12.004;2024-03-07T18:56:14;13.93;;;7.97;;
29302;SDS011;60019;45.556;12.004;2024-03-07T19:02:16;13.95;;;8.07;;
29302;SDS011;60019;45.556;12.004;2024-03-07T19:08:17;10.20;;;6.90;;
29302;SDS011;60019;45.556;12.004;2024-03-07T19:14:19;12.88;;;9.00;;
29302;SDS011;60019;45.556;12.004;2024-03-07T19:20:23;14.32;;;9.32;;
29302;SDS011;60019;45.556;12.004;2024-03-07T19:26:25;14.77;;;10.25;;
29302;SDS011;60019;45.556;12.004;2024-03-07T19:32:27;29.20;;;18.95;;
29302;SDS011;60019;45.556;12.004;2024-03-07T19:38:29;81.10;;;46.50;;
29302;SDS011;60019;45.556;12.004;2024-03-07T19:44:32;55.22;;;30.98;;
29302;SDS011;60019;45.556;12.004;2024-03-07T19:50:34;78.72;;;43.72;;
29302;SDS011;60019;45.556;12.004;2024-03-07T19:56:38;53.08;;;32.28;;
29302;SDS011;60019;45.556;12.004;2024-03-07T20:02:41;32.00;;;17.98;;
29302;SDS011;60019;45.556;12.004;2024-03-07T20:08:46;24.08;;;13.48;;
29302;SDS011;60019;45.556;12.004;2024-03-07T20:14:48;16.65;;;10.48;;
29302;SDS011;60019;45.556;12.004;2024-03-07T20:20:50;11.15;;;8.27;;
29302;SDS011;60019;45.556;12.004;2024-03-07T20:26:52;10.70;;;8.25;;
29302;SDS011;60019;45.556;12.004;2024-03-07T20:32:55;10.90;;;7.47;;
29302;SDS011;60019;45.556;12.004;2024-03-07T20:38:56;10.15;;;7.88;;
29302;SDS011;60019;45.556;12.004;2024-03-07T20:44:58;12.45;;;9.10;;
29302;SDS011;60019;45.556;12.004;2024-03-07T20:51:00;9.98;;;8.50;;
29302;SDS011;60019;45.556;12.004;2024-03-07T20:57:02;14.00;;;8.18;;
29302;SDS011;60019;45.556;12.004;2024-03-07T21:03:04;14.85;;;10.57;;
29302;SDS011;60019;45.556;12.004;2024-03-07T21:09:07;12.05;;;9.10;;
29302;SDS011;60019;45.556;12.004;2024-03-07T21:15:10;21.05;;;14.45;;
29302;SDS011;60019;45.556;12.004;2024-03-07T21:21:13;21.70;;;18.67;;
29302;SDS011;60019;45.556;12.004;2024-03-07T21:27:14;57.80;;;41.72;;
29302;SDS011;60019;45.556;12.004;2024-03-07T21:33:16;40.95;;;30.90;;
29302;SDS011;60019;45.556;12.004;2024-03-07T21:39:18;50.83;;;39.33;;
29302;SDS011;60019;45.556;12.004;2024-03-07T21:45:24;46.70;;;33.20;;
29302;SDS011;60019;45.556;12.004;2024-03-07T21:51:27;30.73;;;22.58;;
29302;SDS011;60019;45.556;12.004;2024-03-07T21:57:31;35.35;;;25.88;;
29302;SDS011;60019;45.556;12.004;2024-03-07T22:03:34;22.63;;;16.35;;
29302;SDS011;60019;45.556;12.004;2024-03-07T22:09:36;17.45;;;12.70;;
29302;SDS011;60019;45.556;12.004;2024-03-07T22:15:38;13.35;;;8.52;;
29302;SDS011;60019;45.556;12.004;2024-03-07T22:21:39;8.20;;;6.82;;
29302;SDS011;60019;45.556;12.004;2024-03-07T22:27:43;12.15;;;7.50;;
29302;SDS011;60019;45.556;12.004;2024-03-07T22:33:45;10.02;;;6.35;;
29302;SDS011;60019;45.556;12.004;2024-03-07T22:39:48;8.80;;;6.55;;
29302;SDS011;60019;45.556;12.004;2024-03-07T22:45:51;7.75;;;6.13;;
29302;SDS011;60019;45.556;12.004;2024-03-07T22:51:52;8.98;;;6.25;;
29302;SDS011;60019;45.556;12.004;2024-03-07T22:57:55;5.90;;;4.97;;
29302;SDS011;60019;45.556;12.004;2024-03-07T23:03:58;6.55;;;5.35;;
29302;SDS011;60019;45.556;12.004;2024-03-07T23:10:05;7.72;;;5.43;;
29302;SDS011;60019;45.556;12.004;2024-03-07T23:16:11;7.38;;;5.43;;
29302;SDS011;60019;45.556;12.004;2024-03-07T23:22:13;7.85;;;4.85;;
29302;SDS011;60019;45.556;12.004;2024-03-07T23:28:15;7.38;;;4.85;;
29302;SDS011;60019;45.556;12.004;2024-03-07T23:34:19;7.63;;;4.78;;
29302;SDS011;60019;45.556;12.004;2024-03-07T23:40:21;7.60;;;5.63;;
29302;SDS011;60019;45.556;12.004;2024-03-07T23:46:23;9.60;;;4.47;;
29302;SDS011;60019;45.556;12.004;2024-03-07T23:52:25;5.13;;;3.75;;
29302;SDS011;60019;45.556;12.004;2024-03-07T23:58:30;6.60;;;4.82;;
